Hastings Natural History Reservation, California Weather observations

Data are for 10 minute period ending at time listed.
 Day   Time   Solar   Ave.   Ave.  Ave.  Vector  Max.   Baro.   Total    
  of    of     Rad.   Air    Rel.  Wind   Wind   Wind  Press.  Precip.   
Year   Day            Temp.  Hum.  Speed  Dir.   Gust                    
2015   (PST)  Kw/m2    F      %     mph   deg.    mph    mb.     in.     
-------------------------------------------------------------------------
  58    8:50   0.02   47.5   100    1.5   281     5.6   949.0    0.00 
  58    9:00   0.02   47.7   100    1.1   283     5.8   949.0    0.00 
  58    9:10   0.04   47.7   100    1.5   265     4.2   949.1    0.00 
  58    9:20   0.04   47.8   100    1.5   259     5.0   949.3    0.00 
  58    9:30   0.04   48.1   100    1.1   281     3.9   949.4    0.00 
  58    9:40   0.06   48.3   100    1.5   271     5.1   949.3    0.00 
  58    9:50   0.06   48.4   100    1.1   285     3.4   949.3    0.00 
  58   10:00   0.08   48.6   100    1.3   324     4.7   949.3    0.00 
  58   10:10   0.13   48.9   100    2.2   257     7.9   949.3    0.00 
  58   10:20   0.09   49.5    99    1.2   275     4.9   949.3    0.00 
  58   10:30   0.09   49.1    98    1.3   295     4.7   949.3    0.00 
  58   10:40   0.11   49.4    96    2.6   263     7.1   949.2    0.00 
  58   10:50   0.14   49.8    91    2.5   252     7.7   949.2    0.00 
  58   11:00   0.14   50.1    89    3.3   249     7.5   949.1    0.00 
  58   11:10   0.22   50.9    89    2.5   262     9.5   949.0    0.00 
  58   11:20   0.16   51.6    87    1.8   303     7.8   949.1    0.00 
  58   11:30   0.17   51.9    85    1.8   270     6.4   949.0    0.00 
  58   11:40   0.23   52.0    85    2.9   277     7.6   948.9    0.00 
  58   11:50   0.17   52.6    83    2.4   328     7.9   948.8    0.00 
  58   12:00   0.11   52.2    83    2.5   348    11.0   948.7    0.00 
  58   12:10   0.14   52.0    83    3.4   262     9.1   948.7    0.00 
  58   12:20   0.18   51.8    85    3.2   265     9.0   948.8    0.00 
  58   12:30   0.19   51.8    85    2.7   294     9.9   948.8    0.00 
  58   12:40   0.20   52.1    85    3.8   280     8.3   948.7    0.00 
  58   12:50   0.12   51.4    88    3.0   307     9.2   948.8    0.01 
  58   13:00   0.20   50.4    93    3.7   282    11.2   948.8    0.00 
  58   13:10   0.33   50.1    95    4.2   250    12.6   948.7    0.00 
  58   13:20   0.33   50.7    93    3.2   277     9.3   948.5    0.00 
  58   13:30   0.25   51.2    90    3.5   284     9.8   948.3    0.00 
  58   13:40   0.34   51.8    87    2.8   332    10.5   948.0    0.00 
  58   13:50   0.22   52.1    85    2.9   323    11.5   947.7    0.00 
  58   14:00   0.16   51.5    84    3.9   254    10.0   947.5    0.00 
  58   14:10   0.16   51.5    84    2.3   258     7.2   947.4    0.00 
  58   14:20   0.14   51.5    82    3.1   247    10.4   947.4    0.00 
  58   14:30   0.16   51.6    81    3.4   266    11.6   947.3    0.00 
  58   14:40   0.30   51.5    80    3.2   288     9.2   947.1    0.00 
  58   14:50   0.37   52.8    76    5.2   252    14.3   946.9    0.00 
  58   15:00   0.16   52.8    73    3.3   268     8.8   946.9    0.00 
  58   15:10   0.14   52.5    74    2.5   299     7.8   946.8    0.00 
  58   15:20   0.13   52.0    78    3.2   258     9.0   946.8    0.00 
  58   15:30   0.14   51.3    83    3.1   256    10.6   946.7    0.00 
  58   15:40   0.17   51.6    81    2.3   254     5.6   946.5    0.00 
  58   15:50   0.18   52.2    82    2.8   346     9.3   946.5    0.01 
  58   16:00   0.13   51.5    86    2.8   287     9.8   946.4    0.00 
  58   16:10   0.10   51.0    85    3.3   322     9.9   946.5    0.00 
  58   16:20   0.11   50.5    88    2.7   280     7.3   946.5    0.00 
  58   16:30   0.11   50.3    92    2.6   275    11.0   946.4    0.01 
  58   16:40   0.07   49.8    92    2.9   345     8.4   946.5    0.00 
  58   16:50   0.08   49.5    93    1.9   334     5.5   946.4    0.00 
  58   17:00   0.14   49.5    93    2.2   268     7.4   946.3    0.00 
  58   17:10   0.05   49.6    89    2.8   276     7.6   946.2    0.00 
  58   17:20   0.06   48.8    90    4.9   253    13.2   946.2    0.01 
  58   17:30   0.07   48.4    94    3.0   353     7.2   946.2    0.00 
  58   17:40   0.07   48.3    93    2.8   310     8.1   946.2    0.00 
  58   17:50   0.06   48.5    90    2.0   330     6.6   946.3    0.00 
  58   18:00   0.03   48.3    86    2.5   258     7.3   946.2    0.00 
  58   18:10   0.02   48.1    86    2.1   285     7.2   946.1    0.00 
  58   18:20   0.02   47.7    86    3.3   327     8.5   946.0    0.00 
  58   18:30   0.01   47.7    88    2.2   265     8.3   946.0    0.00 
  58   18:40   0.00   47.6    87    2.7   266     8.6   946.0    0.00 
  58   18:50   0.00   47.4    88    1.8   349     5.6   946.0    0.00 
  58   19:00   0.00   47.0    89    2.0   311     8.3   945.8    0.00 
  58   19:10   0.00   46.7    90    3.0   254     7.6   945.7    0.00 
  58   19:20   0.00   46.4    93    3.1   246    10.1   945.7    0.00 
  58   19:30   0.00   46.3    94    1.4   250     6.3   945.8    0.00 
  58   19:40   0.00   46.3    94    2.0   253     5.0   945.6    0.00 
  58   19:50   0.00   46.3    94    2.7   251     8.0   945.5    0.00 
  58   20:00   0.00   46.0    93    3.4   251     9.4   945.4    0.00 
  58   20:10   0.00   46.0    94    2.8   249     8.9   945.4    0.00 
  58   20:20   0.00   45.8    96    2.2   295     8.8   945.5    0.01 
  58   20:30   0.00   45.8    97    1.8   340     5.6   945.5    0.00 
  58   20:40   0.00   45.6    97    2.6   244     6.2   945.4    0.00 
  58   20:50   0.00   45.4    97    1.9   251     5.2   945.2    0.01 
  58   21:00   0.00   45.6    98    1.0   262     4.5   945.3    0.00 
  58   21:10   0.00   45.5    98    2.6   279     9.3   945.3    0.01 
  58   21:20   0.00   45.4    98    3.1   256     7.3   945.1    0.01 
  58   21:30   0.00   45.4    99    1.9   250     6.8   945.1    0.01 
  58   21:40   0.00   45.3    99    3.3   244     8.7   945.2    0.03 
  58   21:50   0.00   45.1    99    3.2   257     9.6   945.4    0.00 
  58   22:00   0.00   44.9    98    2.9   251    12.0   945.4    0.00 
  58   22:10   0.00   44.8    97    4.5   245    12.3   945.4    0.00 
  58   22:20   0.00   44.7    96    1.4   292     5.3   945.4    0.00 
  58   22:30   0.00   44.7    97    1.2   252     4.5   945.3    0.00 
  58   22:40   0.00   44.8    98    1.5   246     3.7   945.1    0.00 
  58   22:50   0.00   44.7    98    1.9   254     4.4   945.2    0.02 
  58   23:00   0.00   44.6    99    2.0   332     9.3   945.3    0.02 
  58   23:10   0.00   44.5    99    3.9   268    11.5   945.4    0.00 
  58   23:20   0.00   44.4    99    3.2   278    12.4   945.5    0.00 
  58   23:30   0.00   44.4   100    3.4   239    10.4   945.4    0.00 
  58   23:40   0.00   44.4    99    2.8   248     7.1   945.3    0.01 
  58   23:50   0.00   44.4    99    4.4   247    15.9   945.2    0.00 
  59    0:00   0.00   44.4    98    3.7   272    10.4   945.2    0.00 
  59    0:10   0.00   44.4    98    2.4   263     5.8   945.0    0.00 
  59    0:20   0.00   44.5    98    1.8   274     7.7   945.1    0.00 
  59    0:30   0.00   44.5    98    2.7   243     8.8   945.0    0.00 
  59    0:40   0.00   44.4    98    2.1   257     5.8   944.9    0.00 
  59    0:50   0.00   44.4    98    4.3   248    11.8   944.9    0.01 
  59    1:00   0.00   44.4    99    1.6   270     5.8   944.8    0.00 
  59    1:10   0.00   44.4    99    0.2   282     2.3   944.8    0.00 
  59    1:20   0.00   44.4    99    1.4   258     4.3   944.8    0.05 
  59    1:30   0.00   44.3    99    0.9   259     2.9   944.8    0.01 
  59    1:40   0.00   44.2   100    2.5   260     7.2   944.8    0.00 
  59    1:50   0.00   44.2   100    1.1     3     3.6   944.9    0.05 
  59    2:00   0.00   44.2   100    2.7   255     7.9   944.9    0.02 
  59    2:10   0.00   44.0   100    3.0   255     9.4   945.0    0.00 
  59    2:20   0.00   43.9   100    2.1   268     6.1   945.0    0.00 
  59    2:30   0.00   43.9   100    1.5   248     4.7   945.0    0.00 
  59    2:40   0.00   44.0   100    0.5   216     2.3   944.9    0.00 
  59    2:50   0.00   43.9   100    1.1   275     3.4   944.8    0.00 
  59    3:00   0.00   44.0   100    0.6   306     2.7   944.8    0.00 
  59    3:10   0.00   44.0   100    1.9   250     6.2   944.8    0.00 
  59    3:20   0.00   44.0   100    0.9   244     4.0   944.8    0.01 
  59    3:30   0.00   43.9   100    1.6   261     5.8   944.7    0.01 
  59    3:40   0.00   43.9   100    1.2   264     4.4   944.7    0.00 
  59    3:50   0.00   43.9   100    1.2   270     3.5   944.6    0.00 
  59    4:00   0.00   43.7   100    1.6   238     3.7   944.5    0.00 
  59    4:10   0.00   43.7   100    0.7   237     2.3   944.5    0.01 
  59    4:20   0.00   43.7   100    0.5   298     2.6   944.4    0.03 
  59    4:30   0.00   43.7   100    0.4   254     1.9   944.4    0.00 
  59    4:40   0.00   43.6   100    0.9   258     2.3   944.3    0.00 
  59    4:50   0.00   43.6   100    0.6    18     2.2   944.2    0.00 
  59    5:00   0.00   43.5   100    0.3    28     1.8   944.2    0.00 
  59    5:10   0.00   43.4   100    0.2   272     1.6   944.1    0.00 
  59    5:20   0.00   43.4   100    0.2   230     1.0   944.0    0.00 
  59    5:30   0.00   43.4   100    0.2    79     0.9   943.9    0.00 
  59    5:40   0.00   43.5   100    0.1    50     0.8   943.9    0.00 
  59    5:50   0.00   43.5   100    0.1   308     1.4   943.9    0.00 
  59    6:00   0.00   43.5   100    0.1    58     0.9   944.0    0.00 
  59    6:10   0.00   43.5   100    0.1   127     1.1   944.0    0.01 
  59    6:20   0.00   43.4   100    0.4    91     1.9   944.1    0.00 
  59    6:30   0.00   43.4   100    0.6    64     1.6   944.1    0.00 
  59    6:40   0.00   43.5   100    0.7    46     1.7   944.2    0.00 
  59    6:50   0.00   43.4   100    0.7    65     1.8   944.2    0.00 
  59    7:00   0.00   43.4   100    0.2    80     1.1   944.2    0.00 
  59    7:10   0.00   43.4   100    0.6   214     2.6   944.2    0.00 
  59    7:20   0.00   43.4   100    0.3    61     1.5   944.2    0.00 
  59    7:30   0.00   43.4   100    0.6    42     1.9   944.3    0.00 
  59    7:40   0.00   43.1   100    2.4   358     6.6   944.7    0.01 
  59    7:50   0.00   42.0    98    2.2    55     5.0   944.7    0.06 
  59    8:00   0.00   41.8    99    3.2   234     7.3   944.8    0.03 
  59    8:10   0.00   41.9    99    1.1   195     3.9   944.8    0.02 
  59    8:20   0.00   42.0    99    0.2   204     1.2   944.8    0.02 
  59    8:30   0.01   41.9    99    0.1    73     1.2   944.8    0.01 
  59    8:40   0.05   41.8    99    0.7    48     1.7   944.8    0.02 

Return to Hastings Natural History Reservation graphs page.


Western Regional Climate Center,wrcc@dri.edu